sensor_id;sensor_type;location;lat;lon;timestamp;temperature;humidity
3942;DHT22;1985;48.592;8.850;2023-09-19T00:01:32;16.50;99.90
3942;DHT22;1985;48.592;8.850;2023-09-19T00:03:57;16.50;99.90
3942;DHT22;1985;48.592;8.850;2023-09-19T00:06:24;16.60;99.90
3942;DHT22;1985;48.592;8.850;2023-09-19T00:08:52;16.60;99.90
3942;DHT22;1985;48.592;8.850;2023-09-19T00:11:17;16.70;99.90
3942;DHT22;1985;48.592;8.850;2023-09-19T00:13:43;16.70;99.90
3942;DHT22;1985;48.592;8.850;2023-09-19T00:16:10;16.80;99.90
3942;DHT22;1985;48.592;8.850;2023-09-19T00:18:39;16.80;99.90
3942;DHT22;1985;48.592;8.850;2023-09-19T00:21:04;16.80;99.90
3942;DHT22;1985;48.592;8.850;2023-09-19T00:23:30;16.90;99.90
3942;DHT22;1985;48.592;8.850;2023-09-19T00:26:00;17.00;99.90
3942;DHT22;1985;48.592;8.850;2023-09-19T00:28:26;16.90;99.90
3942;DHT22;1985;48.592;8.850;2023-09-19T00:30:52;16.80;99.90
3942;DHT22;1985;48.592;8.850;2023-09-19T00:33:20;16.80;99.90
3942;DHT22;1985;48.592;8.850;2023-09-19T00:35:52;16.90;99.90
3942;DHT22;1985;48.592;8.850;2023-09-19T00:38:19;16.90;99.90
3942;DHT22;1985;48.592;8.850;2023-09-19T00:40:50;16.80;99.90
3942;DHT22;1985;48.592;8.850;2023-09-19T00:43:20;16.90;99.90
3942;DHT22;1985;48.592;8.850;2023-09-19T00:45:48;16.80;99.90
3942;DHT22;1985;48.592;8.850;2023-09-19T00:48:15;16.80;99.90
3942;DHT22;1985;48.592;8.850;2023-09-19T00:50:43;16.70;99.90
3942;DHT22;1985;48.592;8.850;2023-09-19T00:53:09;16.60;99.90
3942;DHT22;1985;48.592;8.850;2023-09-19T00:55:39;16.60;99.90
3942;DHT22;1985;48.592;8.850;2023-09-19T00:58:07;16.60;99.90
3942;DHT22;1985;48.592;8.850;2023-09-19T01:00:33;16.50;99.90
3942;DHT22;1985;48.592;8.850;2023-09-19T01:03:00;16.50;99.90
3942;DHT22;1985;48.592;8.850;2023-09-19T01:05:27;16.50;99.90
3942;DHT22;1985;48.592;8.850;2023-09-19T01:07:53;16.50;99.90
3942;DHT22;1985;48.592;8.850;2023-09-19T01:10:20;16.30;99.90
3942;DHT22;1985;48.592;8.850;2023-09-19T01:13:18;16.20;99.90
3942;DHT22;1985;48.592;8.850;2023-09-19T01:16:06;16.20;99.90
3942;DHT22;1985;48.592;8.850;2023-09-19T01:21:37;16.20;99.90
3942;DHT22;1985;48.592;8.850;2023-09-19T01:29:42;16.30;99.90
3942;DHT22;1985;48.592;8.850;2023-09-19T01:32:11;16.30;99.90
3942;DHT22;1985;48.592;8.850;2023-09-19T01:34:51;16.40;99.90
3942;DHT22;1985;48.592;8.850;2023-09-19T01:37:18;16.50;99.90
3942;DHT22;1985;48.592;8.850;2023-09-19T01:39:57;16.60;99.90
3942;DHT22;1985;48.592;8.850;2023-09-19T01:45:27;16.70;99.90
3942;DHT22;1985;48.592;8.850;2023-09-19T01:48:14;16.80;99.90
3942;DHT22;1985;48.592;8.850;2023-09-19T01:50:58;16.70;99.90
3942;DHT22;1985;48.592;8.850;2023-09-19T01:53:33;16.70;99.90
3942;DHT22;1985;48.592;8.850;2023-09-19T01:55:59;16.60;99.90
3942;DHT22;1985;48.592;8.850;2023-09-19T01:58:41;16.60;99.90
3942;DHT22;1985;48.592;8.850;2023-09-19T02:01:12;16.50;99.90
3942;DHT22;1985;48.592;8.850;2023-09-19T02:03:41;16.50;99.90
3942;DHT22;1985;48.592;8.850;2023-09-19T02:06:07;16.60;99.90
3942;DHT22;1985;48.592;8.850;2023-09-19T02:08:37;16.60;99.90
3942;DHT22;1985;48.592;8.850;2023-09-19T02:11:02;16.60;99.90
3942;DHT22;1985;48.592;8.850;2023-09-19T02:13:28;16.70;99.90
3942;DHT22;1985;48.592;8.850;2023-09-19T02:15:54;16.70;99.90
3942;DHT22;1985;48.592;8.850;2023-09-19T02:18:19;16.70;99.90
3942;DHT22;1985;48.592;8.850;2023-09-19T02:20:45;16.60;99.90
3942;DHT22;1985;48.592;8.850;2023-09-19T02:23:14;16.70;99.90
3942;DHT22;1985;48.592;8.850;2023-09-19T02:25:41;16.70;99.90
3942;DHT22;1985;48.592;8.850;2023-09-19T02:28:09;16.80;99.90
3942;DHT22;1985;48.592;8.850;2023-09-19T02:30:35;16.80;99.90
3942;DHT22;1985;48.592;8.850;2023-09-19T02:33:01;16.90;99.90
3942;DHT22;1985;48.592;8.850;2023-09-19T02:35:27;16.80;99.90
3942;DHT22;1985;48.592;8.850;2023-09-19T02:37:53;16.70;99.90
3942;DHT22;1985;48.592;8.850;2023-09-19T02:40:19;16.60;99.90
3942;DHT22;1985;48.592;8.850;2023-09-19T02:42:48;16.60;99.90
3942;DHT22;1985;48.592;8.850;2023-09-19T02:45:16;16.70;99.90
3942;DHT22;1985;48.592;8.850;2023-09-19T02:47:43;16.70;99.90
3942;DHT22;1985;48.592;8.850;2023-09-19T02:50:09;16.70;99.90
3942;DHT22;1985;48.592;8.850;2023-09-19T02:52:37;16.70;99.90
3942;DHT22;1985;48.592;8.850;2023-09-19T02:55:03;16.80;99.90
3942;DHT22;1985;48.592;8.850;2023-09-19T02:57:31;16.80;99.90
3942;DHT22;1985;48.592;8.850;2023-09-19T02:59:59;16.80;99.90
3942;DHT22;1985;48.592;8.850;2023-09-19T03:02:26;16.70;99.90
3942;DHT22;1985;48.592;8.850;2023-09-19T03:04:53;16.80;99.90
3942;DHT22;1985;48.592;8.850;2023-09-19T03:07:19;16.80;99.90
3942;DHT22;1985;48.592;8.850;2023-09-19T03:09:45;16.80;99.90
3942;DHT22;1985;48.592;8.850;2023-09-19T03:12:11;16.90;99.90
3942;DHT22;1985;48.592;8.850;2023-09-19T03:14:36;16.90;99.90
3942;DHT22;1985;48.592;8.850;2023-09-19T03:17:02;16.80;99.90
3942;DHT22;1985;48.592;8.850;2023-09-19T03:19:31;16.80;99.90
3942;DHT22;1985;48.592;8.850;2023-09-19T03:21:59;16.70;99.90
3942;DHT22;1985;48.592;8.850;2023-09-19T03:24:24;16.50;99.90
3942;DHT22;1985;48.592;8.850;2023-09-19T03:26:50;16.20;99.90
3942;DHT22;1985;48.592;8.850;2023-09-19T03:29:16;16.00;99.90
3942;DHT22;1985;48.592;8.850;2023-09-19T03:31:42;16.00;99.90
3942;DHT22;1985;48.592;8.850;2023-09-19T03:34:08;16.00;99.90
3942;DHT22;1985;48.592;8.850;2023-09-19T03:36:34;16.00;99.90
3942;DHT22;1985;48.592;8.850;2023-09-19T03:39:00;15.90;99.90
3942;DHT22;1985;48.592;8.850;2023-09-19T03:41:26;15.90;99.90
3942;DHT22;1985;48.592;8.850;2023-09-19T03:43:52;16.00;99.90
3942;DHT22;1985;48.592;8.850;2023-09-19T03:46:18;15.80;99.90
3942;DHT22;1985;48.592;8.850;2023-09-19T03:48:44;15.80;99.90
3942;DHT22;1985;48.592;8.850;2023-09-19T03:51:09;15.70;99.90
3942;DHT22;1985;48.592;8.850;2023-09-19T03:53:36;15.70;99.90
3942;DHT22;1985;48.592;8.850;2023-09-19T03:56:01;15.70;99.90
3942;DHT22;1985;48.592;8.850;2023-09-19T03:58:28;15.70;99.90
3942;DHT22;1985;48.592;8.850;2023-09-19T04:00:57;15.70;99.90
3942;DHT22;1985;48.592;8.850;2023-09-19T04:03:24;15.70;99.90
3942;DHT22;1985;48.592;8.850;2023-09-19T04:05:50;15.60;99.90
3942;DHT22;1985;48.592;8.850;2023-09-19T04:08:16;15.50;99.90
3942;DHT22;1985;48.592;8.850;2023-09-19T04:10:42;15.60;99.90
3942;DHT22;1985;48.592;8.850;2023-09-19T04:13:09;15.60;99.90
3942;DHT22;1985;48.592;8.850;2023-09-19T04:15:34;15.50;99.90
3942;DHT22;1985;48.592;8.850;2023-09-19T04:18:00;15.60;99.90
3942;DHT22;1985;48.592;8.850;2023-09-19T04:20:25;15.60;99.90
3942;DHT22;1985;48.592;8.850;2023-09-19T04:22:51;15.70;99.90
3942;DHT22;1985;48.592;8.850;2023-09-19T04:25:17;15.70;99.90
3942;DHT22;1985;48.592;8.850;2023-09-19T04:27:44;15.80;99.90
3942;DHT22;1985;48.592;8.850;2023-09-19T04:30:10;15.90;99.90
3942;DHT22;1985;48.592;8.850;2023-09-19T04:32:38;15.90;99.90
3942;DHT22;1985;48.592;8.850;2023-09-19T04:35:09;15.90;99.90
3942;DHT22;1985;48.592;8.850;2023-09-19T04:37:41;15.90;99.90
3942;DHT22;1985;48.592;8.850;2023-09-19T04:40:08;15.90;99.90
3942;DHT22;1985;48.592;8.850;2023-09-19T04:42:45;16.00;99.90
3942;DHT22;1985;48.592;8.850;2023-09-19T04:45:18;16.00;99.90
3942;DHT22;1985;48.592;8.850;2023-09-19T04:47:45;16.10;99.90
3942;DHT22;1985;48.592;8.850;2023-09-19T04:50:11;16.10;99.90
3942;DHT22;1985;48.592;8.850;2023-09-19T04:52:41;16.20;99.90
3942;DHT22;1985;48.592;8.850;2023-09-19T04:55:19;16.20;99.90
3942;DHT22;1985;48.592;8.850;2023-09-19T04:57:46;16.20;99.90
3942;DHT22;1985;48.592;8.850;2023-09-19T05:00:14;16.20;99.90
3942;DHT22;1985;48.592;8.850;2023-09-19T05:02:41;16.30;99.90
3942;DHT22;1985;48.592;8.850;2023-09-19T05:05:08;16.40;99.90
3942;DHT22;1985;48.592;8.850;2023-09-19T05:07:34;16.40;99.90
3942;DHT22;1985;48.592;8.850;2023-09-19T05:10:00;16.40;99.90
3942;DHT22;1985;48.592;8.850;2023-09-19T05:12:28;16.50;99.90
3942;DHT22;1985;48.592;8.850;2023-09-19T05:14:55;16.60;99.90
3942;DHT22;1985;48.592;8.850;2023-09-19T05:17:20;16.70;99.90
3942;DHT22;1985;48.592;8.850;2023-09-19T05:19:46;16.80;99.90
3942;DHT22;1985;48.592;8.850;2023-09-19T05:22:12;16.90;99.90
3942;DHT22;1985;48.592;8.850;2023-09-19T05:24:38;17.00;99.90
3942;DHT22;1985;48.592;8.850;2023-09-19T05:27:04;17.00;99.90
3942;DHT22;1985;48.592;8.850;2023-09-19T05:29:32;16.80;99.90
3942;DHT22;1985;48.592;8.850;2023-09-19T05:31:59;16.50;99.90
3942;DHT22;1985;48.592;8.850;2023-09-19T05:36:58;16.00;99.90
3942;DHT22;1985;48.592;8.850;2023-09-19T05:39:24;15.70;99.90
3942;DHT22;1985;48.592;8.850;2023-09-19T05:41:49;15.60;99.90
3942;DHT22;1985;48.592;8.850;2023-09-19T05:44:15;15.50;99.90
3942;DHT22;1985;48.592;8.850;2023-09-19T05:46:40;15.50;99.90
3942;DHT22;1985;48.592;8.850;2023-09-19T05:49:06;15.50;99.90
3942;DHT22;1985;48.592;8.850;2023-09-19T05:51:32;15.60;99.90
3942;DHT22;1985;48.592;8.850;2023-09-19T05:53:57;15.60;99.90
3942;DHT22;1985;48.592;8.850;2023-09-19T05:56:23;15.70;99.90
3942;DHT22;1985;48.592;8.850;2023-09-19T05:58:49;15.80;99.90
3942;DHT22;1985;48.592;8.850;2023-09-19T06:01:17;15.80;99.90
3942;DHT22;1985;48.592;8.850;2023-09-19T06:03:43;15.80;99.90
3942;DHT22;1985;48.592;8.850;2023-09-19T06:06:08;15.80;99.90
3942;DHT22;1985;48.592;8.850;2023-09-19T06:08:34;15.90;99.90
3942;DHT22;1985;48.592;8.850;2023-09-19T06:11:00;15.80;99.90
3942;DHT22;1985;48.592;8.850;2023-09-19T06:13:28;15.80;99.90
3942;DHT22;1985;48.592;8.850;2023-09-19T06:15:55;15.80;99.90
3942;DHT22;1985;48.592;8.850;2023-09-19T06:18:22;15.70;99.90
3942;DHT22;1985;48.592;8.850;2023-09-19T06:20:51;15.60;99.90
3942;DHT22;1985;48.592;8.850;2023-09-19T06:23:17;15.50;99.90
3942;DHT22;1985;48.592;8.850;2023-09-19T06:25:45;15.40;99.90
3942;DHT22;1985;48.592;8.850;2023-09-19T06:28:11;15.40;99.90
3942;DHT22;1985;48.592;8.850;2023-09-19T06:30:40;15.30;99.90
3942;DHT22;1985;48.592;8.850;2023-09-19T06:33:06;15.40;99.90
3942;DHT22;1985;48.592;8.850;2023-09-19T06:35:33;15.40;99.90
3942;DHT22;1985;48.592;8.850;2023-09-19T06:38:02;15.40;99.90
3942;DHT22;1985;48.592;8.850;2023-09-19T06:40:28;15.50;99.90
3942;DHT22;1985;48.592;8.850;2023-09-19T06:42:56;15.50;99.90
3942;DHT22;1985;48.592;8.850;2023-09-19T06:45:22;15.60;99.90
3942;DHT22;1985;48.592;8.850;2023-09-19T06:47:49;15.60;99.90
3942;DHT22;1985;48.592;8.850;2023-09-19T06:50:16;15.60;99.90
3942;DHT22;1985;48.592;8.850;2023-09-19T06:52:44;15.80;99.90
3942;DHT22;1985;48.592;8.850;2023-09-19T06:55:11;15.90;99.90
3942;DHT22;1985;48.592;8.850;2023-09-19T06:57:42;16.00;99.90
3942;DHT22;1985;48.592;8.850;2023-09-19T07:00:09;16.10;99.90
3942;DHT22;1985;48.592;8.850;2023-09-19T07:02:41;16.20;99.90
3942;DHT22;1985;48.592;8.850;2023-09-19T07:05:07;16.30;99.90
3942;DHT22;1985;48.592;8.850;2023-09-19T07:07:33;16.50;99.90
3942;DHT22;1985;48.592;8.850;2023-09-19T07:10:01;16.70;99.90
3942;DHT22;1985;48.592;8.850;2023-09-19T07:12:26;16.90;99.90
3942;DHT22;1985;48.592;8.850;2023-09-19T07:14:52;17.00;99.90
3942;DHT22;1985;48.592;8.850;2023-09-19T07:17:17;17.10;99.90
3942;DHT22;1985;48.592;8.850;2023-09-19T07:19:44;17.30;99.90
3942;DHT22;1985;48.592;8.850;2023-09-19T07:22:10;17.40;99.90
3942;DHT22;1985;48.592;8.850;2023-09-19T07:24:36;17.50;99.90
3942;DHT22;1985;48.592;8.850;2023-09-19T07:27:02;17.50;99.90
3942;DHT22;1985;48.592;8.850;2023-09-19T07:29:28;17.50;99.90
3942;DHT22;1985;48.592;8.850;2023-09-19T07:31:53;17.60;99.90
3942;DHT22;1985;48.592;8.850;2023-09-19T07:34:19;17.60;99.90
3942;DHT22;1985;48.592;8.850;2023-09-19T07:36:48;17.50;99.90
3942;DHT22;1985;48.592;8.850;2023-09-19T07:39:13;17.50;99.90
3942;DHT22;1985;48.592;8.850;2023-09-19T07:41:39;17.60;99.90
3942;DHT22;1985;48.592;8.850;2023-09-19T07:44:05;17.60;99.90
3942;DHT22;1985;48.592;8.850;2023-09-19T07:46:30;17.60;99.90
3942;DHT22;1985;48.592;8.850;2023-09-19T07:48:57;17.70;99.90
3942;DHT22;1985;48.592;8.850;2023-09-19T07:51:23;17.80;99.90
3942;DHT22;1985;48.592;8.850;2023-09-19T07:53:48;17.70;99.90
3942;DHT22;1985;48.592;8.850;2023-09-19T07:56:14;17.60;99.90
3942;DHT22;1985;48.592;8.850;2023-09-19T07:58:40;17.80;99.90
3942;DHT22;1985;48.592;8.850;2023-09-19T08:01:10;17.90;99.90
3942;DHT22;1985;48.592;8.850;2023-09-19T08:03:36;17.80;99.90
3942;DHT22;1985;48.592;8.850;2023-09-19T08:06:06;17.60;99.90
3942;DHT22;1985;48.592;8.850;2023-09-19T08:08:33;17.70;99.90
3942;DHT22;1985;48.592;8.850;2023-09-19T08:11:03;17.70;99.90
3942;DHT22;1985;48.592;8.850;2023-09-19T08:13:41;17.80;99.90
3942;DHT22;1985;48.592;8.850;2023-09-19T08:16:10;18.00;99.90
3942;DHT22;1985;48.592;8.850;2023-09-19T08:18:37;18.00;99.90
3942;DHT22;1985;48.592;8.850;2023-09-19T08:21:05;18.00;99.90
3942;DHT22;1985;48.592;8.850;2023-09-19T08:23:33;18.00;99.90
3942;DHT22;1985;48.592;8.850;2023-09-19T08:25:58;18.10;99.90
3942;DHT22;1985;48.592;8.850;2023-09-19T08:28:28;18.00;99.90
3942;DHT22;1985;48.592;8.850;2023-09-19T08:30:55;18.00;99.90
3942;DHT22;1985;48.592;8.850;2023-09-19T08:33:21;17.90;99.90
3942;DHT22;1985;48.592;8.850;2023-09-19T08:35:46;18.00;99.90
3942;DHT22;1985;48.592;8.850;2023-09-19T08:38:12;18.00;99.90
3942;DHT22;1985;48.592;8.850;2023-09-19T08:40:39;18.00;99.90
3942;DHT22;1985;48.592;8.850;2023-09-19T08:43:06;18.00;99.90
3942;DHT22;1985;48.592;8.850;2023-09-19T08:45:33;18.10;99.90
3942;DHT22;1985;48.592;8.850;2023-09-19T08:50:31;18.40;99.90
3942;DHT22;1985;48.592;8.850;2023-09-19T08:53:00;18.40;99.90
3942;DHT22;1985;48.592;8.850;2023-09-19T08:55:29;18.40;99.90
3942;DHT22;1985;48.592;8.850;2023-09-19T08:58:01;18.40;99.90
3942;DHT22;1985;48.592;8.850;2023-09-19T09:00:28;18.40;99.90
3942;DHT22;1985;48.592;8.850;2023-09-19T09:02:55;18.60;99.90
3942;DHT22;1985;48.592;8.850;2023-09-19T09:05:22;18.80;99.90
3942;DHT22;1985;48.592;8.850;2023-09-19T09:07:49;18.70;99.90
3942;DHT22;1985;48.592;8.850;2023-09-19T09:10:20;18.80;99.90
3942;DHT22;1985;48.592;8.850;2023-09-19T09:12:52;18.70;99.90
3942;DHT22;1985;48.592;8.850;2023-09-19T09:15:21;18.90;99.90
3942;DHT22;1985;48.592;8.850;2023-09-19T09:17:49;18.90;99.90
3942;DHT22;1985;48.592;8.850;2023-09-19T09:20:16;19.10;99.90
3942;DHT22;1985;48.592;8.850;2023-09-19T09:23:12;19.10;99.90
3942;DHT22;1985;48.592;8.850;2023-09-19T09:25:52;18.90;99.90
3942;DHT22;1985;48.592;8.850;2023-09-19T09:28:26;19.00;99.90
3942;DHT22;1985;48.592;8.850;2023-09-19T09:30:54;19.10;99.90
3942;DHT22;1985;48.592;8.850;2023-09-19T09:33:20;19.20;99.90
3942;DHT22;1985;48.592;8.850;2023-09-19T09:35:58;19.30;99.90
3942;DHT22;1985;48.592;8.850;2023-09-19T09:38:48;19.50;99.90
3942;DHT22;1985;48.592;8.850;2023-09-19T09:41:15;19.50;99.90
3942;DHT22;1985;48.592;8.850;2023-09-19T09:43:53;19.10;99.90
3942;DHT22;1985;48.592;8.850;2023-09-19T09:46:20;19.10;99.90
3942;DHT22;1985;48.592;8.850;2023-09-19T09:51:42;19.50;99.90
3942;DHT22;1985;48.592;8.850;2023-09-19T09:54:13;19.70;99.90
3942;DHT22;1985;48.592;8.850;2023-09-19T09:56:56;19.80;99.90
3942;DHT22;1985;48.592;8.850;2023-09-19T09:59:54;20.00;99.90
3942;DHT22;1985;48.592;8.850;2023-09-19T10:02:24;20.30;99.90
3942;DHT22;1985;48.592;8.850;2023-09-19T10:04:54;20.60;99.90
3942;DHT22;1985;48.592;8.850;2023-09-19T10:07:40;20.50;99.90
3942;DHT22;1985;48.592;8.850;2023-09-19T10:10:08;20.30;99.90
3942;DHT22;1985;48.592;8.850;2023-09-19T10:12:55;20.50;99.90
3942;DHT22;1985;48.592;8.850;2023-09-19T10:15:31;21.60;99.90
3942;DHT22;1985;48.592;8.850;2023-09-19T10:18:00;21.50;99.90
3942;DHT22;1985;48.592;8.850;2023-09-19T10:20:26;21.10;99.90
3942;DHT22;1985;48.592;8.850;2023-09-19T10:22:56;20.70;99.90
3942;DHT22;1985;48.592;8.850;2023-09-19T10:25:27;20.80;99.90
3942;DHT22;1985;48.592;8.850;2023-09-19T10:28:17;21.90;99.90
3942;DHT22;1985;48.592;8.850;2023-09-19T10:30:48;23.30;98.90
3942;DHT22;1985;48.592;8.850;2023-09-19T10:33:16;23.50;99.20
3942;DHT22;1985;48.592;8.850;2023-09-19T10:35:44;24.50;96.90
3942;DHT22;1985;48.592;8.850;2023-09-19T10:38:12;26.80;90.90
3942;DHT22;1985;48.592;8.850;2023-09-19T10:40:38;27.00;90.00
3942;DHT22;1985;48.592;8.850;2023-09-19T10:43:15;29.10;85.80
3942;DHT22;1985;48.592;8.850;2023-09-19T10:45:44;29.50;74.40
3942;DHT22;1985;48.592;8.850;2023-09-19T10:48:10;27.90;74.80
3942;DHT22;1985;48.592;8.850;2023-09-19T10:50:44;27.10;76.40
3942;DHT22;1985;48.592;8.850;2023-09-19T10:53:12;27.60;75.90
3942;DHT22;1985;48.592;8.850;2023-09-19T10:55:39;27.80;77.50
3942;DHT22;1985;48.592;8.850;2023-09-19T10:58:08;26.50;73.30
3942;DHT22;1985;48.592;8.850;2023-09-19T11:00:58;24.80;79.70
3942;DHT22;1985;48.592;8.850;2023-09-19T11:03:31;23.80;81.80
3942;DHT22;1985;48.592;8.850;2023-09-19T11:09:03;22.10;90.70
3942;DHT22;1985;48.592;8.850;2023-09-19T11:30:47;21.60;94.50
3942;DHT22;1985;48.592;8.850;2023-09-19T11:36:10;21.20;95.80
3942;DHT22;1985;48.592;8.850;2023-09-19T11:43:51;20.90;96.70
3942;DHT22;1985;48.592;8.850;2023-09-19T11:46:18;21.00;97.20
3942;DHT22;1985;48.592;8.850;2023-09-19T11:48:50;21.00;96.90
3942;DHT22;1985;48.592;8.850;2023-09-19T11:51:23;20.70;96.40
3942;DHT22;1985;48.592;8.850;2023-09-19T11:53:53;20.90;97.20
3942;DHT22;1985;48.592;8.850;2023-09-19T11:56:22;21.40;97.20
3942;DHT22;1985;48.592;8.850;2023-09-19T11:58:51;21.50;97.00
3942;DHT22;1985;48.592;8.850;2023-09-19T12:01:23;21.90;97.50
3942;DHT22;1985;48.592;8.850;2023-09-19T12:03:53;21.70;95.70
3942;DHT22;1985;48.592;8.850;2023-09-19T12:06:19;21.40;96.00
3942;DHT22;1985;48.592;8.850;2023-09-19T12:08:47;21.30;96.80
3942;DHT22;1985;48.592;8.850;2023-09-19T12:11:15;21.10;97.30
3942;DHT22;1985;48.592;8.850;2023-09-19T12:13:45;20.90;97.60
3942;DHT22;1985;48.592;8.850;2023-09-19T12:16:13;21.00;98.00
3942;DHT22;1985;48.592;8.850;2023-09-19T12:18:40;21.00;98.50
3942;DHT22;1985;48.592;8.850;2023-09-19T12:21:08;21.10;97.70
3942;DHT22;1985;48.592;8.850;2023-09-19T12:24:07;21.00;97.90
3942;DHT22;1985;48.592;8.850;2023-09-19T12:26:43;21.20;98.50
3942;DHT22;1985;48.592;8.850;2023-09-19T12:29:16;21.10;99.10
3942;DHT22;1985;48.592;8.850;2023-09-19T12:31:55;20.90;97.20
3942;DHT22;1985;48.592;8.850;2023-09-19T12:34:31;20.50;98.90
3942;DHT22;1985;48.592;8.850;2023-09-19T12:37:07;20.30;99.90
3942;DHT22;1985;48.592;8.850;2023-09-19T12:39:46;20.60;99.80
3942;DHT22;1985;48.592;8.850;2023-09-19T12:42:14;21.00;99.50
3942;DHT22;1985;48.592;8.850;2023-09-19T12:44:42;21.60;99.20
3942;DHT22;1985;48.592;8.850;2023-09-19T12:47:10;22.10;97.40
3942;DHT22;1985;48.592;8.850;2023-09-19T12:49:36;22.00;96.10
3942;DHT22;1985;48.592;8.850;2023-09-19T12:52:22;22.20;96.90
3942;DHT22;1985;48.592;8.850;2023-09-19T12:54:51;22.40;95.50
3942;DHT22;1985;48.592;8.850;2023-09-19T12:57:24;22.50;94.50
3942;DHT22;1985;48.592;8.850;2023-09-19T12:59:52;22.70;94.70
3942;DHT22;1985;48.592;8.850;2023-09-19T13:02:18;22.80;93.90
3942;DHT22;1985;48.592;8.850;2023-09-19T13:04:55;22.30;93.10
3942;DHT22;1985;48.592;8.850;2023-09-19T13:07:44;21.90;94.20
3942;DHT22;1985;48.592;8.850;2023-09-19T13:10:12;21.80;95.00
3942;DHT22;1985;48.592;8.850;2023-09-19T13:12:42;21.80;95.40
3942;DHT22;1985;48.592;8.850;2023-09-19T13:15:14;22.20;94.40
3942;DHT22;1985;48.592;8.850;2023-09-19T13:17:46;22.70;93.00
3942;DHT22;1985;48.592;8.850;2023-09-19T13:20:26;22.50;92.20
3942;DHT22;1985;48.592;8.850;2023-09-19T13:22:57;22.20;92.70
3942;DHT22;1985;48.592;8.850;2023-09-19T13:25:33;22.00;93.60
3942;DHT22;1985;48.592;8.850;2023-09-19T13:28:00;22.20;93.50
3942;DHT22;1985;48.592;8.850;2023-09-19T13:30:30;22.20;93.70
3942;DHT22;1985;48.592;8.850;2023-09-19T13:33:10;21.90;94.20
3942;DHT22;1985;48.592;8.850;2023-09-19T13:35:37;21.60;94.20
3942;DHT22;1985;48.592;8.850;2023-09-19T13:38:05;21.60;93.40
3942;DHT22;1985;48.592;8.850;2023-09-19T13:40:32;21.40;94.10
3942;DHT22;1985;48.592;8.850;2023-09-19T13:43:00;21.20;94.30
3942;DHT22;1985;48.592;8.850;2023-09-19T13:45:26;21.40;92.00
3942;DHT22;1985;48.592;8.850;2023-09-19T13:47:56;21.40;93.30
3942;DHT22;1985;48.592;8.850;2023-09-19T13:50:22;21.60;93.10
3942;DHT22;1985;48.592;8.850;2023-09-19T13:52:50;22.00;92.70
3942;DHT22;1985;48.592;8.850;2023-09-19T13:55:17;22.50;93.40
3942;DHT22;1985;48.592;8.850;2023-09-19T13:57:49;22.60;91.30
3942;DHT22;1985;48.592;8.850;2023-09-19T14:00:16;22.40;91.00
3942;DHT22;1985;48.592;8.850;2023-09-19T14:02:43;22.20;90.80
3942;DHT22;1985;48.592;8.850;2023-09-19T14:05:11;21.90;92.10
3942;DHT22;1985;48.592;8.850;2023-09-19T14:07:40;22.00;90.80
3942;DHT22;1985;48.592;8.850;2023-09-19T14:10:07;22.20;91.10
3942;DHT22;1985;48.592;8.850;2023-09-19T14:12:36;22.50;90.40
3942;DHT22;1985;48.592;8.850;2023-09-19T14:15:05;22.60;87.90
3942;DHT22;1985;48.592;8.850;2023-09-19T14:17:32;22.40;87.30
3942;DHT22;1985;48.592;8.850;2023-09-19T14:19:58;22.40;85.60
3942;DHT22;1985;48.592;8.850;2023-09-19T14:22:23;22.60;87.50
3942;DHT22;1985;48.592;8.850;2023-09-19T14:24:49;22.80;87.10
3942;DHT22;1985;48.592;8.850;2023-09-19T14:27:15;22.80;85.70
3942;DHT22;1985;48.592;8.850;2023-09-19T14:29:40;22.70;84.60
3942;DHT22;1985;48.592;8.850;2023-09-19T14:32:06;22.30;88.00
3942;DHT22;1985;48.592;8.850;2023-09-19T14:34:32;22.70;87.70
3942;DHT22;1985;48.592;8.850;2023-09-19T14:36:58;22.70;85.80
3942;DHT22;1985;48.592;8.850;2023-09-19T14:39:24;22.40;83.20
3942;DHT22;1985;48.592;8.850;2023-09-19T14:41:50;22.50;86.10
3942;DHT22;1985;48.592;8.850;2023-09-19T14:44:16;22.50;84.50
3942;DHT22;1985;48.592;8.850;2023-09-19T14:46:42;22.40;85.90
3942;DHT22;1985;48.592;8.850;2023-09-19T14:49:09;22.40;85.50
3942;DHT22;1985;48.592;8.850;2023-09-19T14:51:37;22.30;86.70
3942;DHT22;1985;48.592;8.850;2023-09-19T14:54:03;22.40;88.30
3942;DHT22;1985;48.592;8.850;2023-09-19T14:56:29;22.50;87.40
3942;DHT22;1985;48.592;8.850;2023-09-19T14:58:56;22.50;85.00
3942;DHT22;1985;48.592;8.850;2023-09-19T15:01:21;22.40;83.30
3942;DHT22;1985;48.592;8.850;2023-09-19T15:03:47;22.30;85.20
3942;DHT22;1985;48.592;8.850;2023-09-19T15:06:16;22.40;87.70
3942;DHT22;1985;48.592;8.850;2023-09-19T15:08:44;22.30;85.20
3942;DHT22;1985;48.592;8.850;2023-09-19T15:11:18;22.40;84.90
3942;DHT22;1985;48.592;8.850;2023-09-19T15:13:46;22.40;84.40
3942;DHT22;1985;48.592;8.850;2023-09-19T15:16:13;22.20;85.60
3942;DHT22;1985;48.592;8.850;2023-09-19T15:18:40;22.30;87.30
3942;DHT22;1985;48.592;8.850;2023-09-19T15:21:08;22.40;86.50
3942;DHT22;1985;48.592;8.850;2023-09-19T15:23:36;22.50;87.60
3942;DHT22;1985;48.592;8.850;2023-09-19T15:26:03;22.60;88.00
3942;DHT22;1985;48.592;8.850;2023-09-19T15:28:29;22.40;84.60
3942;DHT22;1985;48.592;8.850;2023-09-19T15:31:04;22.30;85.80
3942;DHT22;1985;48.592;8.850;2023-09-19T15:33:30;22.20;85.40
3942;DHT22;1985;48.592;8.850;2023-09-19T15:36:14;22.20;86.70
3942;DHT22;1985;48.592;8.850;2023-09-19T15:39:03;22.10;86.70
3942;DHT22;1985;48.592;8.850;2023-09-19T15:41:35;22.00;87.20
3942;DHT22;1985;48.592;8.850;2023-09-19T15:44:03;21.90;87.10
3942;DHT22;1985;48.592;8.850;2023-09-19T15:46:33;21.90;86.40
3942;DHT22;1985;48.592;8.850;2023-09-19T15:49:00;21.90;87.50
3942;DHT22;1985;48.592;8.850;2023-09-19T15:51:26;22.00;89.40
3942;DHT22;1985;48.592;8.850;2023-09-19T15:53:53;21.90;87.30
3942;DHT22;1985;48.592;8.850;2023-09-19T15:56:20;21.80;88.20
3942;DHT22;1985;48.592;8.850;2023-09-19T15:58:47;21.80;88.10
3942;DHT22;1985;48.592;8.850;2023-09-19T16:01:14;21.60;88.40
3942;DHT22;1985;48.592;8.850;2023-09-19T16:03:43;21.40;86.80
3942;DHT22;1985;48.592;8.850;2023-09-19T16:06:10;21.40;89.10
3942;DHT22;1985;48.592;8.850;2023-09-19T16:08:44;21.30;88.40
3942;DHT22;1985;48.592;8.850;2023-09-19T16:11:11;21.40;90.00
3942;DHT22;1985;48.592;8.850;2023-09-19T16:13:38;21.40;89.80
3942;DHT22;1985;48.592;8.850;2023-09-19T16:16:04;21.40;89.10
3942;DHT22;1985;48.592;8.850;2023-09-19T16:18:30;21.40;89.20
3942;DHT22;1985;48.592;8.850;2023-09-19T16:21:03;21.20;88.80
3942;DHT22;1985;48.592;8.850;2023-09-19T16:23:29;21.10;89.70
3942;DHT22;1985;48.592;8.850;2023-09-19T16:26:08;21.20;89.70
3942;DHT22;1985;48.592;8.850;2023-09-19T16:28:37;21.20;90.30
3942;DHT22;1985;48.592;8.850;2023-09-19T16:31:03;21.00;90.10
3942;DHT22;1985;48.592;8.850;2023-09-19T16:33:31;21.10;89.90
3942;DHT22;1985;48.592;8.850;2023-09-19T16:35:57;21.00;88.90
3942;DHT22;1985;48.592;8.850;2023-09-19T16:38:25;21.00;89.60
3942;DHT22;1985;48.592;8.850;2023-09-19T16:41:00;21.00;90.00
3942;DHT22;1985;48.592;8.850;2023-09-19T16:43:27;21.00;90.60
3942;DHT22;1985;48.592;8.850;2023-09-19T16:46:07;20.90;91.10
3942;DHT22;1985;48.592;8.850;2023-09-19T16:48:36;20.80;91.20
3942;DHT22;1985;48.592;8.850;2023-09-19T16:51:07;20.70;91.50
3942;DHT22;1985;48.592;8.850;2023-09-19T16:53:34;20.80;91.70
3942;DHT22;1985;48.592;8.850;2023-09-19T16:56:09;20.70;91.90
3942;DHT22;1985;48.592;8.850;2023-09-19T16:58:39;20.80;92.60
3942;DHT22;1985;48.592;8.850;2023-09-19T17:01:12;20.90;92.50
3942;DHT22;1985;48.592;8.850;2023-09-19T17:03:39;20.90;93.00